Time;durP1;ratioP1;P1;durP2;ratioP2;P2;SDS_P1;SDS_P2;PMS_P1;PMS_P2;Temp;Humidity;BMP_temperature;BMP_pressure;BME280_temperature;BME280_humidity;BME280_pressure;Samples;Min_cycle;Max_cycle;Signal;HPM_P1;HPM_P2
2021/08/09 00:00:56;;;;;;;3.80;1.98;;;;;;;18.56;66.68;98676.34;5071698;28;20048;-73
2021/08/09 00:03:21;;;;;;;2.90;1.85;;;;;;;18.52;66.65;98675.41;5071608;28;20035;-72
2021/08/09 00:05:47;;;;;;;2.53;1.83;;;;;;;18.47;66.67;98666.50;5072119;28;20033;-72
2021/08/09 00:08:12;;;;;;;3.13;2.00;;;;;;;18.38;66.86;98661.00;5071950;28;20473;-73
2021/08/09 00:10:38;;;;;;;4.85;2.20;;;;;;;18.33;67.08;98653.72;5071210;28;20059;-74
2021/08/09 00:13:03;;;;;;;3.95;2.20;;;;;;;18.26;66.95;98656.25;5071846;28;20032;-73
2021/08/09 00:15:29;;;;;;;4.68;2.72;;;;;;;18.15;67.07;98656.66;5071530;28;20024;-73
2021/08/09 00:17:55;;;;;;;4.03;2.45;;;;;;;18.11;67.13;98646.59;5068626;28;20499;-72
2021/08/09 00:20:21;;;;;;;4.55;2.50;;;;;;;18.10;67.32;98659.69;5071410;28;20036;-72
2021/08/09 00:22:46;;;;;;;4.13;2.50;;;;;;;18.13;67.62;98659.00;5071468;28;20351;-73
2021/08/09 00:25:12;;;;;;;4.15;2.30;;;;;;;18.13;67.48;98655.41;5070100;28;20549;-73
2021/08/09 00:27:38;;;;;;;4.75;2.80;;;;;;;18.09;67.50;98651.69;5071868;28;20083;-72
2021/08/09 00:30:06;;;;;;;3.67;2.33;;;;;;;18.03;67.28;98659.44;5067280;28;20477;-72
2021/08/09 00:32:31;;;;;;;4.78;2.42;;;;;;;17.96;67.60;98665.47;5071716;28;20024;-71
2021/08/09 00:34:57;;;;;;;6.70;2.53;;;;;;;17.94;67.59;98662.22;5068884;28;20550;-72
2021/08/09 00:37:22;;;;;;;5.20;3.67;;;;;;;17.88;67.88;98663.63;5071531;28;20086;-72
2021/08/09 00:39:47;;;;;;;5.65;3.75;;;;;;;17.84;67.72;98654.34;5068496;28;20029;-72
2021/08/09 00:42:13;;;;;;;8.40;4.57;;;;;;;17.77;67.80;98656.84;5071660;28;20107;-72
2021/08/09 00:44:38;;;;;;;7.10;3.88;;;;;;;17.72;67.82;98663.44;5067675;28;20020;-72
2021/08/09 00:47:04;;;;;;;6.22;3.75;;;;;;;17.65;67.79;98669.50;5071510;28;20123;-73
2021/08/09 00:49:30;;;;;;;8.13;4.50;;;;;;;17.60;68.59;98674.44;5071539;28;20024;-72
2021/08/09 00:51:56;;;;;;;7.72;4.78;;;;;;;17.54;67.86;98671.88;5070661;28;20037;-72
2021/08/09 00:54:25;;;;;;;7.40;4.60;;;;;;;17.49;68.22;98668.50;5070318;28;20058;-72
2021/08/09 00:56:51;;;;;;;7.85;4.70;;;;;;;17.47;68.26;98663.28;5068949;28;20050;-72
2021/08/09 00:59:16;;;;;;;8.43;4.63;;;;;;;17.43;68.22;98678.16;5072743;28;20536;-72
2021/08/09 01:01:42;;;;;;;7.88;4.57;;;;;;;17.38;68.33;98684.69;5072322;28;20380;-72
2021/08/09 01:04:09;;;;;;;6.28;4.03;;;;;;;17.35;68.17;98679.81;5071099;28;20503;-72
2021/08/09 01:06:35;;;;;;;8.02;4.07;;;;;;;17.28;68.27;98677.59;5071681;28;20488;-72
2021/08/09 01:09:24;;;;;;;8.40;4.28;;;;;;;17.22;68.76;98687.25;5070489;28;20039;-73
2021/08/09 01:11:50;;;;;;;7.25;4.25;;;;;;;17.20;68.87;98684.81;5068931;28;20036;-72
2021/08/09 01:14:37;;;;;;;6.60;4.15;;;;;;;17.21;68.84;98680.06;5071357;28;20020;-72
2021/08/09 01:17:05;;;;;;;7.75;4.32;;;;;;;17.20;68.90;98668.19;5070888;28;20024;-72
2021/08/09 01:19:49;;;;;;;7.20;4.13;;;;;;;17.20;68.74;98679.28;5071513;28;20032;-73
2021/08/09 01:22:42;;;;;;;8.20;4.78;;;;;;;17.27;68.83;98689.84;5069863;28;20073;-73
2021/08/09 01:25:24;;;;;;;7.13;4.45;;;;;;;17.29;68.92;98700.59;5067901;28;20084;-72
2021/08/09 01:27:51;;;;;;;9.07;4.32;;;;;;;17.31;69.16;98698.31;5068919;28;20566;-72
2021/08/09 01:30:19;;;;;;;7.15;4.10;;;;;;;17.28;68.64;98701.75;5070372;28;20031;-72
2021/08/09 01:32:46;;;;;;;7.80;4.20;;;;;;;17.21;68.87;98700.31;5067903;28;20017;-71
2021/08/09 01:35:14;;;;;;;9.15;4.45;;;;;;;17.18;68.71;98706.50;5065879;28;20024;-72
2021/08/09 01:37:44;;;;;;;8.10;4.50;;;;;;;17.16;68.50;98707.97;5067994;28;20036;-72
2021/08/09 01:40:10;;;;;;;8.68;3.95;;;;;;;17.12;68.84;98699.53;5065435;28;20063;-72
2021/08/09 01:42:37;;;;;;;8.20;4.18;;;;;;;17.09;68.67;98700.19;5068703;28;20029;-72
2021/08/09 01:45:05;;;;;;;6.78;4.35;;;;;;;17.05;68.99;98702.00;5070535;28;20106;-72
2021/08/09 01:47:34;;;;;;;6.50;3.83;;;;;;;17.03;69.04;98704.31;5070530;28;20081;-73
2021/08/09 01:50:01;;;;;;;6.85;4.60;;;;;;;17.07;69.11;98713.56;5069013;28;20040;-72
2021/08/09 01:52:27;;;;;;;9.02;4.80;;;;;;;17.11;69.08;98704.28;5070610;28;20111;-72
2021/08/09 01:54:53;;;;;;;7.32;4.13;;;;;;;17.08;68.87;98695.81;5070040;28;20033;-72
2021/08/09 01:57:18;;;;;;;6.68;4.03;;;;;;;17.06;68.74;98695.31;5070744;28;20075;-72
2021/08/09 01:59:44;;;;;;;9.65;4.68;;;;;;;17.01;68.51;98695.50;5067344;28;20036;-73
2021/08/09 02:02:09;;;;;;;7.63;4.60;;;;;;;16.98;68.67;98691.47;5070815;28;20463;-73
2021/08/09 02:04:35;;;;;;;8.32;4.43;;;;;;;16.99;68.68;98697.81;5070618;28;20032;-72
2021/08/09 02:07:00;;;;;;;6.47;4.45;;;;;;;16.98;69.08;98701.72;5069302;28;20032;-72
2021/08/09 02:09:25;;;;;;;7.10;4.38;;;;;;;16.99;68.68;98703.34;5070076;28;20466;-72
2021/08/09 02:12:02;;;;;;;8.05;4.20;;;;;;;16.99;68.55;98701.41;5073392;28;20024;-72
2021/08/09 02:14:32;;;;;;;8.90;3.90;;;;;;;16.99;68.75;98703.34;5071252;28;20396;-72
2021/08/09 02:17:13;;;;;;;5.22;3.28;;;;;;;17.02;68.56;98706.28;5072616;28;20082;-72
2021/08/09 02:20:12;;;;;;;6.55;3.47;;;;;;;17.02;68.44;98722.91;5073561;28;20465;-72
2021/08/09 02:22:39;;;;;;;6.30;3.10;;;;;;;17.04;68.19;98731.69;5073320;28;20029;-72
2021/08/09 02:25:09;;;;;;;6.40;2.70;;;;;;;17.05;68.44;98726.94;5072299;28;20705;-72
2021/08/09 02:27:40;;;;;;;4.93;2.85;;;;;;;17.07;68.18;98731.03;5072424;28;20029;-71
2021/08/09 02:30:08;;;;;;;3.25;2.08;;;;;;;17.09;68.27;98733.44;5074424;28;20495;-72
2021/08/09 02:32:37;;;;;;;5.30;2.40;;;;;;;17.06;68.22;98736.88;5073710;28;20074;-72
2021/08/09 02:35:05;;;;;;;4.20;2.30;;;;;;;17.03;68.21;98748.63;5074348;28;20032;-72
2021/08/09 02:37:31;;;;;;;4.03;2.20;;;;;;;17.00;68.03;98752.06;5071038;28;20028;-72
2021/08/09 02:39:58;;;;;;;4.22;2.20;;;;;;;16.94;68.13;98748.66;5070853;28;20520;-72
2021/08/09 02:42:24;;;;;;;4.93;2.13;;;;;;;16.89;67.98;98751.59;5072455;28;20109;-72
2021/08/09 02:44:49;;;;;;;3.67;2.42;;;;;;;16.86;68.05;98757.78;5073539;28;20135;-72
2021/08/09 02:47:16;;;;;;;4.38;2.22;;;;;;;16.81;67.64;98764.34;5073691;28;20024;-71
2021/08/09 02:49:48;;;;;;;4.28;2.42;;;;;;;16.75;68.11;98773.97;5069106;28;20020;-73
2021/08/09 02:52:15;;;;;;;6.07;2.72;;;;;;;16.78;68.11;98790.72;5072908;28;20362;-73
2021/08/09 02:54:45;;;;;;;4.35;2.78;;;;;;;16.80;67.92;98804.25;5073571;28;20027;-73
2021/08/09 02:57:13;;;;;;;5.43;2.70;;;;;;;16.83;68.08;98800.84;5070183;28;20098;-73
2021/08/09 02:59:38;;;;;;;5.93;2.75;;;;;;;16.79;67.81;98803.44;5073483;28;20610;-72
2021/08/09 03:02:06;;;;;;;4.13;2.80;;;;;;;16.74;68.17;98798.06;5072661;28;20107;-73
2021/08/09 03:04:35;;;;;;;4.97;2.88;;;;;;;16.71;67.86;98803.47;5071995;28;20036;-72
2021/08/09 03:07:05;;;;;;;4.95;2.70;;;;;;;16.72;67.88;98803.13;5072297;28;20806;-73
2021/08/09 03:09:31;;;;;;;4.18;3.28;;;;;;;16.69;67.94;98805.75;5071476;28;20032;-73
2021/08/09 03:11:57;;;;;;;4.72;2.80;;;;;;;16.67;67.98;98808.84;5074742;28;20036;-72
2021/08/09 03:14:24;;;;;;;4.38;2.80;;;;;;;16.67;67.73;98815.19;5074204;28;20036;-73
2021/08/09 03:16:51;;;;;;;6.68;3.40;;;;;;;16.66;67.73;98821.06;5074641;28;20120;-73
2021/08/09 03:19:16;;;;;;;5.68;2.88;;;;;;;16.62;67.57;98820.09;5054450;28;20487;-72
2021/08/09 03:21:52;;;;;;;7.07;3.80;;;;;;;16.58;67.81;98830.19;5068543;28;20119;-73
2021/08/09 03:24:18;;;;;;;6.95;4.50;;;;;;;16.57;67.74;98834.91;5055249;28;20037;-73
2021/08/09 03:26:44;;;;;;;5.50;3.97;;;;;;;16.58;68.05;98850.38;5054337;28;20090;-72
2021/08/09 03:29:09;;;;;;;9.65;4.45;;;;;;;16.59;67.44;98845.66;5054696;28;20021;-72
2021/08/09 03:31:34;;;;;;;5.70;4.35;;;;;;;16.58;67.90;98852.34;5054376;28;20028;-73
2021/08/09 03:34:00;;;;;;;5.35;3.80;;;;;;;16.58;67.35;98858.69;5068826;28;20029;-73
2021/08/09 03:36:25;;;;;;;6.22;3.85;;;;;;;16.50;67.13;98857.56;5053106;28;20031;-73
2021/08/09 03:38:50;;;;;;;6.97;3.72;;;;;;;16.43;67.49;98861.97;5052971;28;20025;-73
2021/08/09 03:41:16;;;;;;;7.38;3.83;;;;;;;16.42;67.76;98865.88;5063260;28;20425;-73
2021/08/09 03:43:41;;;;;;;6.70;4.00;;;;;;;16.45;67.31;98870.75;5072739;28;20025;-73
2021/08/09 03:46:07;;;;;;;4.38;3.17;;;;;;;16.47;67.63;98876.78;5073842;28;20050;-73
2021/08/09 03:48:33;;;;;;;6.05;3.22;;;;;;;16.46;67.27;98877.94;5073690;28;20461;-73
2021/08/09 03:50:58;;;;;;;6.75;3.55;;;;;;;16.43;67.63;98871.06;5066312;28;20086;-73
2021/08/09 03:53:24;;;;;;;6.88;4.15;;;;;;;16.37;67.36;98872.38;5060012;28;20021;-73
2021/08/09 03:55:49;;;;;;;4.85;3.50;;;;;;;16.31;67.36;98873.66;5064815;28;20050;-73
2021/08/09 03:58:14;;;;;;;5.15;3.60;;;;;;;16.29;67.83;98871.22;5053535;28;20071;-73
2021/08/09 04:00:40;;;;;;;6.65;3.58;;;;;;;16.29;67.38;98862.91;5053757;28;20078;-73
2021/08/09 04:03:06;;;;;;;4.75;3.25;;;;;;;16.27;67.42;98862.44;5071985;28;20107;-73
2021/08/09 04:05:31;;;;;;;5.97;2.97;;;;;;;16.30;67.89;98849.91;5059901;28;20029;-73
2021/08/09 04:07:57;;;;;;;4.30;2.70;;;;;;;16.33;67.61;98843.69;5068754;28;20374;-73
2021/08/09 04:10:22;;;;;;;4.88;2.63;;;;;;;16.30;67.77;98844.38;5073728;28;20028;-73
2021/08/09 04:12:47;;;;;;;3.78;2.55;;;;;;;16.32;67.90;98840.13;5058303;28;20397;-73
2021/08/09 04:15:13;;;;;;;4.15;3.00;;;;;;;16.36;68.28;98831.97;5053781;28;20078;-72
2021/08/09 04:17:39;;;;;;;6.50;2.85;;;;;;;16.40;68.24;98832.97;5055576;28;20026;-72
2021/08/09 04:20:05;;;;;;;7.55;3.20;;;;;;;16.47;68.31;98840.78;5073202;28;20039;-72
2021/08/09 04:22:30;;;;;;;6.30;3.45;;;;;;;16.50;68.42;98835.41;5072321;28;20473;-72
2021/08/09 04:24:55;;;;;;;6.22;3.35;;;;;;;16.56;68.64;98827.75;5073376;28;20107;-73
2021/08/09 04:27:21;;;;;;;6.05;3.17;;;;;;;16.61;68.69;98832.31;5073400;28;20107;-72
2021/08/09 04:29:46;;;;;;;6.50;3.10;;;;;;;16.62;68.79;98836.72;5072980;28;20029;-73
2021/08/09 04:32:15;;;;;;;4.60;3.25;;;;;;;16.64;68.66;98840.75;5058424;28;20097;-73
2021/08/09 04:34:42;;;;;;;6.63;3.33;;;;;;;16.62;68.73;98845.03;5061988;28;20027;-73
2021/08/09 04:37:07;;;;;;;6.18;3.10;;;;;;;16.63;69.13;98847.44;5072519;28;20036;-72
2021/08/09 04:39:33;;;;;;;5.97;3.10;;;;;;;16.69;69.06;98848.09;5071657;28;20073;-73
2021/08/09 04:41:58;;;;;;;6.78;3.28;;;;;;;16.71;68.67;98856.06;5065909;28;20401;-72
2021/08/09 04:44:24;;;;;;;7.03;3.05;;;;;;;16.76;69.06;98853.13;5066920;28;20457;-73
2021/08/09 04:46:49;;;;;;;5.70;2.95;;;;;;;16.82;69.33;98840.75;5072348;28;20049;-73
2021/08/09 04:49:14;;;;;;;5.03;2.97;;;;;;;16.81;69.30;98859.31;5072770;28;20536;-73
2021/08/09 04:51:40;;;;;;;5.97;2.78;;;;;;;16.82;68.97;98862.91;5067137;28;20035;-72
2021/08/09 04:54:05;;;;;;;6.30;2.80;;;;;;;16.81;69.35;98873.16;5052775;28;20029;-73
2021/08/09 04:56:31;;;;;;;3.67;2.30;;;;;;;16.86;69.37;98869.44;5052968;28;20033;-73
2021/08/09 04:58:56;;;;;;;3.38;2.42;;;;;;;16.94;69.51;98876.88;5052648;28;20539;-73
2021/08/09 05:01:21;;;;;;;4.47;2.75;;;;;;;17.01;69.44;98872.84;5056128;28;20024;-73
2021/08/09 05:03:47;;;;;;;7.30;2.92;;;;;;;17.03;69.66;98871.38;5067752;28;20047;-72
2021/08/09 05:06:13;;;;;;;6.50;2.85;;;;;;;17.10;69.40;98874.47;5052885;28;20075;-72
2021/08/09 05:08:38;;;;;;;4.00;2.67;;;;;;;17.17;69.67;98876.72;5052703;28;20516;-72
2021/08/09 05:11:03;;;;;;;4.82;2.88;;;;;;;17.22;69.70;98882.09;5054198;28;20083;-72
2021/08/09 05:13:29;;;;;;;5.50;2.88;;;;;;;17.28;69.43;98879.94;5072391;28;20484;-73
2021/08/09 05:15:54;;;;;;;4.72;2.53;;;;;;;17.34;69.52;98872.25;5072646;28;20024;-73
2021/08/09 05:18:20;;;;;;;4.80;2.63;;;;;;;17.43;69.62;98880.56;5070978;28;20115;-72
2021/08/09 05:20:47;;;;;;;3.65;2.50;;;;;;;17.51;69.77;98879.72;5067475;28;20029;-73
2021/08/09 05:23:14;;;;;;;3.85;1.92;;;;;;;17.57;69.37;98878.38;5052895;28;20053;-73
2021/08/09 05:25:39;;;;;;;6.20;2.50;;;;;;;17.65;69.51;98882.25;5052453;28;20070;-73
2021/08/09 05:28:05;;;;;;;4.55;2.15;;;;;;;17.74;69.37;98877.47;5062213;28;20501;-72
2021/08/09 05:30:30;;;;;;;4.13;1.90;;;;;;;17.81;69.19;98882.50;5071718;28;20063;-72
2021/08/09 05:32:56;;;;;;;4.50;2.22;;;;;;;17.87;69.07;98889.50;5071943;28;20029;-72
2021/08/09 05:35:21;;;;;;;3.63;2.08;;;;;;;17.91;68.70;98895.19;5072565;28;20032;-73
2021/08/09 05:37:47;;;;;;;3.67;1.90;;;;;;;17.94;68.78;98889.75;5071461;28;20021;-72
2021/08/09 05:40:14;;;;;;;4.43;2.28;;;;;;;17.93;68.54;98888.13;5070819;28;20028;-72
2021/08/09 05:42:39;;;;;;;6.10;2.30;;;;;;;17.97;68.53;98891.06;5055193;28;20039;-73
2021/08/09 05:45:06;;;;;;;5.53;2.20;;;;;;;17.99;68.52;98891.59;5054949;28;20451;-73
2021/08/09 05:47:31;;;;;;;3.70;1.90;;;;;;;18.04;68.25;98899.72;5074053;28;20055;-73
2021/08/09 05:49:56;;;;;;;5.47;3.05;;;;;;;18.13;68.51;98902.44;5076280;28;20409;-73
2021/08/09 05:52:26;;;;;;;5.97;3.60;;;;;;;18.18;68.67;98895.84;5062638;28;20053;-73
2021/08/09 05:54:52;;;;;;;7.68;3.58;;;;;;;18.24;68.80;98902.84;5056447;28;20377;-72
2021/08/09 05:57:18;;;;;;;6.30;3.33;;;;;;;18.28;68.69;98906.59;5056054;28;20493;-73
2021/08/09 05:59:45;;;;;;;4.93;3.00;;;;;;;18.34;68.55;98910.78;5056051;28;20547;-73
2021/08/09 06:02:11;;;;;;;5.18;3.50;;;;;;;18.39;68.56;98915.31;5074036;28;20087;-71
2021/08/09 06:04:37;;;;;;;4.90;3.00;;;;;;;18.45;68.23;98920.34;5075204;28;20024;-70
2021/08/09 06:07:02;;;;;;;6.90;3.28;;;;;;;18.51;68.67;98915.41;5075734;28;20066;-70
2021/08/09 06:09:27;;;;;;;6.97;3.08;;;;;;;18.54;68.29;98917.50;5073939;28;20528;-70
2021/08/09 06:11:53;;;;;;;5.40;2.80;;;;;;;18.58;68.26;98909.28;5075442;28;20039;-69
2021/08/09 06:14:18;;;;;;;6.35;2.83;;;;;;;18.59;68.20;98913.69;5068633;28;20381;-70
2021/08/09 06:16:44;;;;;;;5.25;3.15;;;;;;;18.60;67.98;98913.38;5056658;28;20112;-71
2021/08/09 06:19:09;;;;;;;4.47;2.50;;;;;;;18.63;67.87;98916.63;5060248;28;20067;-71
2021/08/09 06:21:34;;;;;;;5.97;2.60;;;;;;;18.67;67.66;98912.03;5067256;28;20062;-71
2021/08/09 06:24:00;;;;;;;3.67;2.20;;;;;;;18.62;67.04;98906.66;5065816;28;20091;-71
2021/08/09 06:26:25;;;;;;;4.90;2.42;;;;;;;18.54;67.15;98900.84;5055702;28;20037;-72
2021/08/09 06:28:51;;;;;;;5.72;2.90;;;;;;;18.52;67.03;98911.47;5065776;28;20377;-71
2021/08/09 06:31:16;;;;;;;8.40;2.45;;;;;;;18.54;66.96;98917.50;5075565;28;20028;-71
2021/08/09 06:33:41;;;;;;;5.22;2.33;;;;;;;18.53;66.98;98913.09;5062297;28;20396;-71
2021/08/09 06:36:07;;;;;;;4.75;2.03;;;;;;;18.55;66.97;98923.84;5054339;28;20474;-72
2021/08/09 06:38:32;;;;;;;3.35;2.15;;;;;;;18.53;66.96;98920.63;5065576;28;20123;-71
2021/08/09 06:40:58;;;;;;;3.72;1.98;;;;;;;18.56;66.84;98904.09;5071810;28;20036;-71
2021/08/09 06:43:23;;;;;;;4.40;2.42;;;;;;;18.58;66.85;98912.91;5061949;28;20070;-71
2021/08/09 06:45:49;;;;;;;3.58;2.00;;;;;;;18.64;67.07;98926.59;5074821;28;20469;-71
2021/08/09 06:48:14;;;;;;;4.22;2.10;;;;;;;18.63;66.81;98924.97;5073009;28;20536;-71
2021/08/09 06:50:41;;;;;;;4.20;2.22;;;;;;;18.66;66.75;98913.97;5074896;28;20043;-71
2021/08/09 06:53:06;;;;;;;4.93;2.15;;;;;;;18.70;67.08;98922.47;5073424;28;20070;-71
2021/08/09 06:55:32;;;;;;;6.50;2.53;;;;;;;18.76;66.66;98912.75;5065412;28;20423;-70
2021/08/09 06:57:57;;;;;;;4.82;2.10;;;;;;;18.84;66.63;98916.63;5073957;28;20028;-70
2021/08/09 07:00:22;;;;;;;4.15;2.20;;;;;;;18.89;66.60;98921.97;5070875;28;20033;-70
2021/08/09 07:02:48;;;;;;;3.70;2.00;;;;;;;18.94;66.46;98912.59;5074815;28;20079;-70
2021/08/09 07:05:13;;;;;;;4.50;1.80;;;;;;;18.98;66.23;98919.94;5074650;28;20051;-70
2021/08/09 07:07:40;;;;;;;4.15;2.10;;;;;;;19.00;66.18;98923.19;5074707;28;20025;-69
2021/08/09 07:10:06;;;;;;;4.57;1.88;;;;;;;19.06;66.05;98920.19;5074495;28;20499;-70
2021/08/09 07:12:32;;;;;;;2.95;1.80;;;;;;;19.09;64.82;98923.13;5074613;28;20036;-70
2021/08/09 07:14:57;;;;;;;3.28;1.77;;;;;;;19.07;64.82;98919.03;5074499;28;20037;-70
2021/08/09 07:17:23;;;;;;;4.05;1.70;;;;;;;19.11;64.47;98911.66;5074250;28;20388;-70
2021/08/09 07:19:48;;;;;;;3.78;1.60;;;;;;;19.16;64.37;98915.00;5072534;28;20469;-70
2021/08/09 07:22:13;;;;;;;3.47;1.50;;;;;;;19.19;64.24;98913.53;5066025;28;20036;-69
2021/08/09 07:24:39;;;;;;;2.15;1.63;;;;;;;19.17;64.05;98916.63;5063324;28;20048;-70
2021/08/09 07:27:04;;;;;;;3.25;1.50;;;;;;;19.21;63.87;98918.75;5073282;28;20387;-69
2021/08/09 07:29:31;;;;;;;4.65;1.45;;;;;;;19.23;63.75;98916.44;5072871;28;20035;-69
2021/08/09 07:31:58;;;;;;;2.58;1.30;;;;;;;19.27;63.77;98914.59;5073047;28;20031;-70
2021/08/09 07:34:24;;;;;;;3.35;1.42;;;;;;;19.31;63.77;98916.34;5072957;28;20028;-70
2021/08/09 07:36:49;;;;;;;2.75;1.23;;;;;;;19.36;63.39;98914.50;5071856;28;20077;-71
2021/08/09 07:39:15;;;;;;;2.70;1.48;;;;;;;19.41;63.50;98920.66;5060529;28;20033;-72
2021/08/09 07:41:41;;;;;;;2.00;1.30;;;;;;;19.47;63.10;98924.03;5061780;28;20025;-71
2021/08/09 07:44:06;;;;;;;2.53;1.00;;;;;;;19.49;62.09;98916.16;5068867;28;20035;-72
2021/08/09 07:46:31;;;;;;;3.22;1.20;;;;;;;19.48;61.65;98914.53;5070670;28;20044;-70
2021/08/09 07:48:57;;;;;;;3.20;1.40;;;;;;;19.48;61.32;98909.78;5072986;28;20031;-71
2021/08/09 07:51:23;;;;;;;2.50;1.02;;;;;;;19.51;61.08;98910.25;5072820;28;20466;-71
2021/08/09 07:53:48;;;;;;;2.88;1.38;;;;;;;19.50;60.24;98912.22;5072961;28;20029;-71
2021/08/09 07:56:13;;;;;;;2.85;1.77;;;;;;;19.55;60.58;98914.78;5072520;28;20044;-72
2021/08/09 07:58:39;;;;;;;4.28;1.17;;;;;;;19.58;59.14;98916.03;5067852;28;20040;-71
2021/08/09 08:01:04;;;;;;;2.25;1.40;;;;;;;19.60;59.01;98916.50;5067885;28;20029;-73
2021/08/09 08:03:30;;;;;;;2.20;1.50;;;;;;;19.61;59.08;98918.94;5068872;28;20033;-71
2021/08/09 08:05:55;;;;;;;2.03;1.05;;;;;;;19.65;58.65;98919.06;5057361;28;20520;-71
2021/08/09 08:08:21;;;;;;;2.95;1.10;;;;;;;19.67;58.50;98924.31;5066149;28;20040;-72
2021/08/09 08:10:47;;;;;;;3.53;1.63;;;;;;;19.68;57.84;98918.38;5072278;28;20031;-72
2021/08/09 08:13:12;;;;;;;2.13;1.40;;;;;;;19.69;58.12;98933.91;5062127;28;20032;-72
2021/08/09 08:15:38;;;;;;;1.85;1.30;;;;;;;19.73;58.04;98934.03;5055927;28;20060;-73
2021/08/09 08:18:03;;;;;;;3.63;1.60;;;;;;;19.75;58.35;98934.50;5065815;28;20032;-73
2021/08/09 08:20:29;;;;;;;4.20;1.63;;;;;;;19.78;57.70;98934.63;5072269;28;20490;-72
2021/08/09 08:22:56;;;;;;;3.28;1.60;;;;;;;19.79;57.29;98939.03;5070749;28;20460;-72
2021/08/09 08:25:22;;;;;;;3.97;1.60;;;;;;;19.83;57.92;98941.91;5059091;28;20379;-71
2021/08/09 08:27:47;;;;;;;3.08;1.25;;;;;;;19.93;58.09;98947.06;5070827;28;20025;-71
2021/08/09 08:30:13;;;;;;;4.25;1.30;;;;;;;20.02;57.99;98940.59;5067946;28;20451;-71
2021/08/09 08:32:38;;;;;;;4.78;2.45;;;;;;;20.05;57.70;98937.09;5065393;28;20028;-71
2021/08/09 08:35:04;;;;;;;4.45;2.22;;;;;;;20.08;57.74;98936.41;5070481;28;20024;-71
2021/08/09 08:37:30;;;;;;;4.50;1.67;;;;;;;20.12;57.35;98940.13;5057545;28;20027;-71
2021/08/09 08:39:55;;;;;;;3.95;1.50;;;;;;;20.16;56.36;98929.09;5053409;28;20075;-71
2021/08/09 08:42:20;;;;;;;4.30;1.50;;;;;;;20.18;56.66;98935.13;5054121;28;20366;-74
2021/08/09 08:44:46;;;;;;;2.97;1.50;;;;;;;20.25;56.70;98931.75;5068186;28;20048;-72
2021/08/09 08:47:18;;;;;;;3.83;1.90;;;;;;;20.30;56.83;98935.13;5065078;28;20397;-72
2021/08/09 08:49:44;;;;;;;3.50;1.45;;;;;;;20.34;56.25;98924.91;5062918;28;20457;-72
2021/08/09 08:52:10;;;;;;;2.65;1.23;;;;;;;20.36;55.47;98927.31;5069838;28;20464;-71
2021/08/09 08:54:39;;;;;;;2.95;1.33;;;;;;;20.37;55.90;98926.16;5070732;28;20031;-73
2021/08/09 08:57:14;;;;;;;3.00;1.67;;;;;;;20.47;55.95;98924.84;5054205;28;20025;-74
2021/08/09 08:59:39;;;;;;;2.45;1.33;;;;;;;20.58;56.12;98922.41;5051400;28;20036;-73
2021/08/09 09:02:05;;;;;;;2.17;1.30;;;;;;;20.66;55.79;98921.44;5057152;28;20043;-72
2021/08/09 09:04:32;;;;;;;3.28;1.40;;;;;;;20.74;55.59;98928.84;5070192;28;20043;-72
2021/08/09 09:07:02;;;;;;;1.92;1.30;;;;;;;20.80;55.29;98927.47;5056119;28;20328;-72
2021/08/09 09:09:28;;;;;;;;;;;;;;;20.89;55.70;98923.75;5069042;28;20491;-73
2021/08/09 09:11:54;;;;;;;3.78;1.30;;;;;;;20.99;55.78;98917.63;5063210;28;19920;-74
2021/08/09 09:14:30;;;;;;;1.92;1.27;;;;;;;21.03;54.73;98924.13;5063140;28;20029;-75
2021/08/09 09:16:57;;;;;;;2.10;1.42;;;;;;;21.12;54.84;98924.78;5080656;28;20025;-73
2021/08/09 09:19:38;;;;;;;2.85;1.60;;;;;;;21.21;55.00;98918.25;5058108;28;20056;-73
2021/08/09 09:22:20;;;;;;;2.75;1.55;;;;;;;21.28;55.01;98921.22;5063733;28;20032;-74
2021/08/09 09:24:48;;;;;;;2.20;1.20;;;;;;;21.36;54.57;98920.25;5069932;28;20030;-71
2021/08/09 09:27:33;;;;;;;4.10;1.70;;;;;;;21.40;54.78;98917.56;5065745;28;20029;-73
2021/08/09 09:29:59;;;;;;;2.97;1.77;;;;;;;21.44;54.15;98924.03;5070316;28;20029;-73
2021/08/09 09:32:25;;;;;;;4.13;1.70;;;;;;;21.50;54.40;98924.59;5067129;28;20047;-77
2021/08/09 09:34:57;;;;;;;2.90;1.40;;;;;;;21.58;54.79;98926.41;5071310;28;20547;-76
2021/08/09 09:37:24;;;;;;;2.17;1.40;;;;;;;21.68;54.40;98925.91;5065022;28;20032;-77
2021/08/09 09:39:50;;;;;;;2.17;1.40;;;;;;;21.72;53.77;98923.19;5067054;28;20123;-77
2021/08/09 09:42:15;;;;;;;3.80;1.77;;;;;;;21.77;53.59;98922.13;5069791;28;20529;-75
2021/08/09 09:44:42;;;;;;;2.13;1.30;;;;;;;21.82;53.71;98925.44;5057306;28;20679;-77
2021/08/09 09:47:27;;;;;;;2.83;1.50;;;;;;;21.89;51.08;98926.78;5070643;28;20055;-75
2021/08/09 09:49:58;;;;;;;2.15;1.48;;;;;;;21.86;51.92;98925.53;5070576;28;20032;-75
2021/08/09 09:52:44;;;;;;;1.80;1.50;;;;;;;21.91;52.44;98927.25;5070254;28;20706;-81
2021/08/09 09:55:12;;;;;;;4.60;1.50;;;;;;;21.94;52.32;98923.72;5070932;28;20025;-81
2021/08/09 09:57:39;;;;;;;3.47;1.60;;;;;;;21.97;52.12;98929.41;5070714;28;20025;-79
2021/08/09 10:00:14;;;;;;;2.53;1.65;;;;;;;21.99;51.07;98929.06;5053188;28;20025;-74
2021/08/09 10:02:42;;;;;;;2.75;1.33;;;;;;;21.99;50.72;98932.63;5064537;28;20031;-77
2021/08/09 10:05:08;;;;;;;3.70;1.50;;;;;;;22.04;51.20;98925.16;5058369;28;20070;-76
2021/08/09 10:07:38;;;;;;;6.25;1.52;;;;;;;22.10;51.34;98921.72;5067692;28;20108;-78
2021/08/09 10:10:05;;;;;;;2.92;1.30;;;;;;;22.17;51.72;98923.88;5050943;28;20025;-78
2021/08/09 10:12:32;;;;;;;3.30;1.40;;;;;;;22.23;51.95;98922.41;5054205;28;20017;-76
2021/08/09 10:14:59;;;;;;;1.80;1.38;;;;;;;22.33;51.87;98923.84;5069876;28;20056;-77
2021/08/09 10:17:27;;;;;;;3.75;2.20;;;;;;;22.41;51.74;98917.25;5062572;28;20032;-75
2021/08/09 10:19:57;;;;;;;1.73;1.20;;;;;;;22.49;51.78;98925.81;5049645;28;20598;-76
2021/08/09 10:22:23;;;;;;;2.97;1.40;;;;;;;22.53;51.39;98921.94;5052819;28;20048;-77
2021/08/09 10:24:55;;;;;;;2.22;1.30;;;;;;;22.58;50.57;98918.84;5058821;28;20033;-76
2021/08/09 10:27:45;;;;;;;2.55;1.48;;;;;;;22.62;50.07;98918.13;5066119;28;20606;-74
2021/08/09 10:30:12;;;;;;;1.73;1.00;;;;;;;22.64;49.54;98910.97;5061374;28;20100;-74
2021/08/09 10:32:50;;;;;;;2.28;1.38;;;;;;;22.64;46.13;98910.16;5065315;28;20469;-75
2021/08/09 10:35:34;;;;;;;2.13;1.27;;;;;;;22.58;47.37;98904.88;5066111;28;20119;-76
2021/08/09 10:38:32;;;;;;;5.15;4.47;;;;;;;22.58;46.55;98906.84;5063155;28;20037;-77
2021/08/09 10:41:01;;;;;;;1.95;1.30;;;;;;;22.62;47.36;98909.75;5062339;28;20037;-75
2021/08/09 10:43:27;;;;;;;2.70;1.10;;;;;;;22.66;47.62;98907.81;5073943;28;20107;-75
2021/08/09 10:45:52;;;;;;;1.40;1.08;;;;;;;22.74;47.97;98912.38;5069319;28;20033;-73
2021/08/09 10:48:42;;;;;;;1.73;1.20;;;;;;;22.83;48.15;98901.78;5064641;28;20401;-73
2021/08/09 10:51:08;;;;;;;2.35;1.20;;;;;;;22.82;46.74;98902.97;5054335;28;20123;-75
2021/08/09 10:53:33;;;;;;;1.92;1.30;;;;;;;22.86;47.67;98900.22;5070998;28;20120;-72
2021/08/09 10:55:59;;;;;;;2.55;1.33;;;;;;;22.94;47.41;98899.19;5072085;28;20028;-74
2021/08/09 10:58:57;;;;;;;1.38;1.20;;;;;;;23.05;48.19;98896.59;5070041;28;20465;-73
2021/08/09 11:01:23;;;;;;;2.25;1.58;;;;;;;23.14;48.00;98890.78;5045136;28;20071;-73
2021/08/09 11:04:01;;;;;;;1.38;1.10;;;;;;;23.24;48.18;98897.78;5066239;28;20114;-72
2021/08/09 11:06:52;;;;;;;2.33;1.08;;;;;;;23.35;47.67;98901.63;5069767;28;20039;-72
2021/08/09 11:09:34;;;;;;;2.47;1.00;;;;;;;23.43;47.93;98902.53;5074085;28;20042;-73
2021/08/09 11:12:27;;;;;;;2.13;1.48;;;;;;;23.53;48.15;98901.09;5065922;28;20023;-72
2021/08/09 11:15:07;;;;;;;2.40;1.10;;;;;;;23.65;48.18;98898.13;5059135;28;20504;-74
2021/08/09 11:17:45;;;;;;;2.67;1.30;;;;;;;23.73;47.82;98887.84;5068136;28;20069;-73
2021/08/09 11:20:25;;;;;;;2.40;1.10;;;;;;;23.84;48.53;98888.03;5070499;28;20035;-72
2021/08/09 11:23:04;;;;;;;2.00;1.27;;;;;;;23.93;48.07;98891.38;5058718;28;20028;-70
2021/08/09 11:25:47;;;;;;;2.92;2.03;;;;;;;23.97;48.35;98892.25;5053590;28;20021;-71
2021/08/09 11:28:25;;;;;;;2.17;1.30;;;;;;;24.06;48.70;98890.00;5062064;28;20500;-72
2021/08/09 11:30:53;;;;;;;2.23;1.23;;;;;;;24.16;47.90;98890.56;5055815;28;20033;-72
2021/08/09 11:33:33;;;;;;;3.90;1.20;;;;;;;24.18;47.65;98883.38;5053767;28;20055;-72
2021/08/09 11:36:10;;;;;;;2.58;1.85;;;;;;;24.24;47.41;98895.09;5055375;28;20120;-72
2021/08/09 11:38:49;;;;;;;2.83;1.52;;;;;;;24.29;46.70;98891.94;5072196;28;20044;-71